Time;durP1;ratioP1;P1;durP2;ratioP2;P2;SDS_P1;SDS_P2;PMS_P1;PMS_P2;Temp;Humidity;BMP_temperature;BMP_pressure;BME280_temperature;BME280_humidity;BME280_pressure;Samples;Min_cycle;Max_cycle;Signal;HPM_P1;HPM_P2
2021/12/07 00:00:19;;;;;;;;;0.75;0.75;;;;;7.70;94.46;100554.09;4812551;29;45625;-85
2021/12/07 00:02:46;;;;;;;;;0.50;0.00;;;;;7.47;94.58;100504.16;4791945;29;48831;-83
2021/12/07 00:05:12;;;;;;;;;1.00;1.00;;;;;7.62;94.66;100549.31;4792819;29;46071;-83
2021/12/07 00:07:39;;;;;;;;;1.00;1.00;;;;;7.70;94.55;100565.38;4792367;29;45691;-85
2021/12/07 00:10:05;;;;;;;;;1.50;1.00;;;;;7.48;94.92;100531.06;4806774;29;45939;-84
2021/12/07 00:12:35;;;;;;;;;1.50;1.00;;;;;7.50;94.53;100537.84;4776445;29;48550;-84
2021/12/07 00:15:03;;;;;;;;;0.00;0.00;;;;;7.69;94.70;100566.28;4810060;29;46426;-84
2021/12/07 00:17:30;;;;;;;;;1.00;1.00;;;;;7.57;94.45;100551.38;4808035;29;45518;-86
2021/12/07 00:19:56;;;;;;;;;1.00;1.00;;;;;7.78;94.52;100580.53;4809985;29;45804;-85
2021/12/07 00:22:22;;;;;;;;;0.25;0.00;;;;;7.45;94.59;100531.28;4791215;29;46775;-85
2021/12/07 00:24:47;;;;;;;;;1.50;1.00;;;;;7.63;94.60;100556.22;4807953;29;45964;-85
2021/12/07 00:27:13;;;;;;;;;1.25;1.00;;;;;7.44;94.51;100520.00;4793149;29;45586;-85
2021/12/07 00:29:39;;;;;;;;;0.25;0.00;;;;;7.36;94.48;100510.94;4809481;29;45692;-84
2021/12/07 00:32:21;;;;;;;;;0.00;0.00;;;;;7.65;94.61;100556.16;4791425;29;47424;-85
2021/12/07 00:37:29;;;;;;;;;0.00;0.00;;;;;7.70;94.38;100570.59;4808610;29;45900;-84
2021/12/07 00:39:55;;;;;;;;;2.00;1.00;;;;;7.66;94.06;100563.03;4807047;29;45908;-85
2021/12/07 00:42:36;;;;;;;;;1.00;1.00;;;;;7.54;94.05;100554.19;4793831;29;47510;-86
2021/12/07 00:45:25;;;;;;;;;0.25;0.25;;;;;7.46;94.14;100552.00;4827881;29;46126;-87
2021/12/07 00:48:09;;;;;;;;;1.00;0.00;;;;;7.55;94.04;100577.56;4802010;29;45798;-85
2021/12/07 00:50:36;;;;;;;;;0.00;0.00;;;;;7.49;94.07;100557.06;4794913;29;45897;-85
2021/12/07 00:53:05;;;;;;;;;1.00;1.00;;;;;7.73;93.81;100593.00;4810223;29;46482;-86
2021/12/07 00:55:35;;;;;;;;;1.00;0.75;;;;;7.46;93.84;100551.16;4809436;29;45821;-85
2021/12/07 00:58:16;;;;;;;;;1.50;1.00;;;;;7.72;94.13;100604.41;4808319;29;45717;-83
2021/12/07 01:00:41;;;;;;;;;0.25;0.25;;;;;7.59;93.78;100580.81;4807451;29;46019;-87
2021/12/07 01:03:07;;;;;;;;;1.50;0.00;;;;;7.65;93.84;100583.06;4807858;29;45517;-85
2021/12/07 01:05:35;;;;;;;;;0.50;0.50;;;;;7.74;93.77;100608.56;4791307;29;47268;-85
2021/12/07 01:26:51;;;;;;;;;0.00;0.00;;;;;7.39;93.55;100561.13;4818050;29;46328;-86
2021/12/07 01:29:20;;;;;;;;;0.25;0.00;;;;;7.64;93.34;100597.03;4811113;29;45530;-85
2021/12/07 01:35:41;;;;;;;;;0.00;0.00;;;;;7.48;92.94;100576.22;4809074;29;46093;-85
2021/12/07 01:59:44;;;;;;;;;2.00;1.00;;;;;7.18;93.16;100571.03;4768737;29;45672;-84
2021/12/07 02:05:31;;;;;;;;;0.00;0.00;;;;;7.32;93.21;100598.91;4769039;29;45649;-85
2021/12/07 02:07:58;;;;;;;;;0.25;0.25;;;;;7.39;93.16;100613.25;4768671;29;46978;-84
2021/12/07 02:10:26;;;;;;;;;0.00;0.00;;;;;7.36;93.29;100616.03;4753609;29;46545;-87
2021/12/07 02:12:55;;;;;;;;;1.00;0.00;;;;;7.20;92.78;100597.00;4755406;29;45849;-85
2021/12/07 02:15:24;;;;;;;;;0.00;0.00;;;;;7.12;93.00;100589.63;4754678;29;45990;-83
2021/12/07 02:21:21;;;;;;;;;1.50;0.00;;;;;7.23;93.06;100615.06;4771310;29;46214;-83
2021/12/07 02:23:47;;;;;;;;;0.75;0.00;;;;;7.23;93.00;100616.84;4769070;29;45761;-85
2021/12/07 02:26:12;;;;;;;;;0.00;0.00;;;;;6.63;92.70;100523.88;4781225;29;45703;-85
2021/12/07 02:28:40;;;;;;;;;1.00;0.00;;;;;6.97;92.63;100587.03;4798177;29;45652;-85
2021/12/07 02:31:08;;;;;;;;;0.00;0.00;;;;;6.73;92.76;100552.81;4800965;29;45461;-83
2021/12/07 02:36:56;;;;;;;;;0.00;0.00;;;;;7.08;92.78;100627.19;4793104;29;45832;-85
2021/12/07 02:39:33;;;;;;;;;1.00;0.00;;;;;6.89;92.67;100604.88;4774680;29;47325;-85
2021/12/07 02:42:00;;;;;;;;;0.00;0.00;;;;;6.62;92.90;100552.56;4789406;29;46508;-84
2021/12/07 02:44:27;;;;;;;;;1.00;0.00;;;;;6.87;92.86;100591.09;4774982;29;45997;-86
2021/12/07 02:46:52;;;;;;;;;0.00;0.00;;;;;7.00;92.81;100599.91;4790766;29;45592;-85
2021/12/07 02:49:19;;;;;;;;;0.50;0.00;;;;;6.88;92.91;100592.78;4788791;29;46769;-84
2021/12/07 02:51:45;;;;;;;;;1.00;0.00;;;;;7.07;92.87;100619.47;4789021;29;48479;-84
2021/12/07 02:54:10;;;;;;;;;0.00;0.00;;;;;6.78;92.82;100565.56;4796085;29;45867;-84
2021/12/07 02:56:36;;;;;;;;;1.50;1.00;;;;;6.65;93.06;100544.59;4796312;29;45728;-84
2021/12/07 02:59:03;;;;;;;;;0.00;0.00;;;;;7.11;92.95;100607.94;4782589;29;47653;-83
2021/12/07 03:01:33;;;;;;;;;1.00;1.00;;;;;7.10;93.28;100604.50;4812669;29;46032;-84
2021/12/07 03:07:39;;;;;;;;;2.00;0.00;;;;;7.10;93.14;100620.13;4809745;29;45717;-84
2021/12/07 03:26:29;;;;;;;;;1.00;0.00;;;;;6.96;93.38;100622.69;4812143;29;45562;-84
2021/12/07 03:28:57;;;;;;;;;0.00;0.00;;;;;6.83;93.67;100595.63;4798815;29;45549;-84
2021/12/07 03:31:26;;;;;;;;;1.00;0.00;;;;;6.94;93.63;100621.91;4817988;29;48445;-83
2021/12/07 03:33:53;;;;;;;;;1.00;0.25;;;;;6.90;93.47;100612.59;4806686;29;47271;-85
2021/12/07 03:36:20;;;;;;;;;2.00;0.00;;;;;6.66;93.34;100577.50;4825965;29;45469;-83
2021/12/07 03:38:46;;;;;;;;;0.00;0.00;;;;;7.06;93.46;100646.44;4813248;29;45192;-83
2021/12/07 03:41:12;;;;;;;;;0.00;0.00;;;;;7.06;93.18;100646.44;4829816;29;45403;-83
2021/12/07 03:43:39;;;;;;;;;0.25;0.25;;;;;6.63;93.13;100573.31;4830654;29;45324;-86
2021/12/07 03:46:04;;;;;;;;;0.75;0.00;;;;;6.93;93.35;100616.78;4829138;29;45491;-85
2021/12/07 03:48:30;;;;;;;;;0.00;0.00;;;;;6.62;93.30;100555.19;4825306;29;45600;-84
2021/12/07 03:50:56;;;;;;;;;1.00;1.00;;;;;7.00;93.30;100615.53;4809275;29;47601;-86
2021/12/07 03:53:21;;;;;;;;;0.00;0.00;;;;;6.79;92.95;100593.28;4795598;29;47231;-86
2021/12/07 03:55:47;;;;;;;;;0.00;0.00;;;;;6.95;93.22;100635.78;4811081;29;45491;-83
2021/12/07 03:58:13;;;;;;;;;0.50;0.00;;;;;6.58;93.20;100564.09;4814917;29;45392;-84
2021/12/07 04:00:43;;;;;;;;;1.00;1.00;;;;;6.89;93.46;100621.34;4798223;29;48686;-85
2021/12/07 04:03:13;;;;;;;;;0.00;0.00;;;;;6.92;93.21;100622.91;4812925;29;45700;-83
2021/12/07 04:05:45;;;;;;;;;1.00;0.00;;;;;6.90;93.59;100616.97;4811373;29;45789;-84
2021/12/07 04:08:16;;;;;;;;;0.50;0.25;;;;;6.88;93.73;100605.78;4813286;29;45718;-85
2021/12/07 04:10:41;;;;;;;;;0.00;0.00;;;;;6.65;93.65;100584.47;4798038;29;47430;-83
2021/12/07 04:13:07;;;;;;;;;1.00;0.00;;;;;6.74;93.39;100585.75;4793814;29;47998;-86
2021/12/07 04:15:33;;;;;;;;;3.00;0.00;;;;;6.83;93.48;100615.63;4810710;29;45737;-84
2021/12/07 04:17:59;;;;;;;;;0.00;0.00;;;;;6.66;93.39;100593.97;4792618;29;45873;-85
2021/12/07 04:20:24;;;;;;;;;1.75;0.00;;;;;6.60;93.34;100596.91;4809569;29;45733;-85
2021/12/07 04:22:50;;;;;;;;;0.00;0.00;;;;;6.65;93.50;100607.06;4809023;29;48112;-84
2021/12/07 04:25:17;;;;;;;;;0.75;0.00;;;;;6.40;93.45;100565.94;4811461;29;45723;-85
2021/12/07 04:27:43;;;;;;;;;0.75;0.00;;;;;6.58;93.36;100580.56;4796527;29;45735;-84
2021/12/07 04:30:19;;;;;;;;;4.00;0.50;;;;;6.55;93.30;100580.69;4797253;29;46466;-85
2021/12/07 04:32:44;;;;;;;;;0.25;0.00;;;;;6.42;93.36;100569.31;4794690;29;46478;-85
2021/12/07 04:35:11;;;;;;;;;0.00;0.00;;;;;6.43;93.31;100565.75;4792557;29;45647;-85
2021/12/07 04:37:38;;;;;;;;;1.00;0.00;;;;;6.53;93.32;100592.94;4792583;29;45628;-84
2021/12/07 04:40:05;;;;;;;;;0.50;0.00;;;;;6.66;93.22;100614.78;4792901;29;47669;-84
2021/12/07 04:42:31;;;;;;;;;1.75;0.00;;;;;6.58;93.56;100595.31;4794835;29;47947;-85
2021/12/07 04:45:00;;;;;;;;;0.00;0.00;;;;;6.51;93.31;100581.81;4793641;29;45637;-85
2021/12/07 04:47:39;;;;;;;;;2.00;0.00;;;;;6.35;93.47;100565.34;4794377;29;45738;-86
2021/12/07 04:59:25;;;;;;;;;0.50;0.00;;;;;6.38;93.48;100582.53;4808296;29;45588;-84
2021/12/07 05:01:51;;;;;;;;;1.75;0.00;;;;;6.62;93.31;100617.66;4810457;29;46544;-85
2021/12/07 05:07:45;;;;;;;;;1.50;0.75;;;;;6.59;93.52;100610.84;4807764;29;45514;-85
2021/12/07 05:10:19;;;;;;;;;1.00;1.00;;;;;6.57;93.40;100610.09;4806950;29;45640;-85
2021/12/07 05:15:56;;;;;;;;;2.00;1.00;;;;;6.26;93.49;100571.88;4807298;29;45791;-85
2021/12/07 05:18:38;;;;;;;;;3.50;1.00;;;;;6.33;93.72;100577.59;4808021;29;45742;-86
2021/12/07 05:24:00;;;;;;;;;1.50;1.00;;;;;6.22;93.68;100569.50;4808041;29;45670;-85
2021/12/07 05:40:15;;;;;;;;;2.50;1.50;;;;;6.23;93.42;100602.41;4735000;30;45845;-85
2021/12/07 05:42:41;;;;;;;;;3.50;2.50;;;;;5.89;93.26;100538.34;4737691;30;45941;-84
2021/12/07 05:45:09;;;;;;;;;2.00;2.00;;;;;6.32;93.63;100626.16;4734740;30;46458;-87
2021/12/07 05:47:35;;;;;;;;;4.75;2.00;;;;;6.01;93.58;100574.09;4735254;30;46226;-83
2021/12/07 05:50:02;;;;;;;;;4.25;2.00;;;;;6.02;93.51;100575.78;4735736;30;46130;-86
2021/12/07 05:52:28;;;;;;;;;2.00;1.00;;;;;5.91;93.49;100567.72;4721062;30;45924;-85
2021/12/07 05:54:53;;;;;;;;;2.00;2.00;;;;;5.99;93.36;100577.72;4738126;30;47464;-83
2021/12/07 05:57:19;;;;;;;;;4.00;4.00;;;;;5.92;93.34;100576.34;4740245;30;47392;-83
2021/12/07 05:59:45;;;;;;;;;2.00;2.00;;;;;6.03;93.24;100600.88;4739896;30;45664;-82
2021/12/07 06:02:11;;;;;;;;;6.00;4.50;;;;;6.15;93.37;100622.81;4739472;30;45819;-84
2021/12/07 06:04:37;;;;;;;;;4.75;2.00;;;;;6.20;93.12;100632.03;4730440;30;47570;-86
2021/12/07 06:07:04;;;;;;;;;4.00;2.00;;;;;6.09;93.50;100623.13;4747542;30;45650;-84
2021/12/07 06:09:29;;;;;;;;;2.00;2.00;;;;;6.02;93.20;100600.94;4791317;29;45516;-83
2021/12/07 06:11:55;;;;;;;;;6.50;4.00;;;;;5.94;93.38;100587.53;4808715;29;45046;-84
2021/12/07 06:14:28;;;;;;;;;5.00;4.00;;;;;5.89;93.57;100565.19;4805662;29;47783;-85
2021/12/07 06:16:53;;;;;;;;;4.25;4.00;;;;;6.08;93.61;100600.63;4794953;29;47275;-86
2021/12/07 06:19:20;;;;;;;;;4.00;3.50;;;;;6.19;93.49;100619.94;4809540;29;45665;-84
2021/12/07 06:21:45;;;;;;;;;6.50;4.00;;;;;5.86;93.53;100556.69;4809778;29;45634;-84
2021/12/07 06:24:11;;;;;;;;;4.75;4.00;;;;;6.15;93.34;100581.19;4810913;29;45775;-85
2021/12/07 06:26:36;;;;;;;;;5.00;4.00;;;;;6.09;93.72;100566.75;4809047;29;46252;-85
2021/12/07 06:29:03;;;;;;;;;8.25;4.00;;;;;6.22;93.22;100588.56;4807533;29;45555;-83
2021/12/07 06:31:29;;;;;;;;;4.25;3.50;;;;;5.88;93.50;100519.31;4826982;29;45183;-82
2021/12/07 06:33:54;;;;;;;;;4.75;4.50;;;;;6.20;93.81;100577.41;4810145;29;46243;-83
2021/12/07 06:36:20;;;;;;;;;6.00;4.50;;;;;5.98;93.34;100532.69;4809902;29;46274;-84
2021/12/07 06:38:47;;;;;;;;;8.50;5.00;;;;;6.04;93.51;100536.72;4826940;29;45248;-84
2021/12/07 06:41:13;;;;;;;;;8.00;6.00;;;;;6.13;93.53;100544.00;4812900;29;45124;-83
2021/12/07 06:43:39;;;;;;;;;5.75;5.00;;;;;6.06;93.28;100530.50;4811540;29;47458;-85
2021/12/07 06:46:05;;;;;;;;;7.00;5.25;;;;;6.08;93.65;100533.84;4812234;29;46453;-84
2021/12/07 06:48:31;;;;;;;;;4.50;3.50;;;;;6.03;93.30;100529.81;4813872;29;45061;-83
2021/12/07 06:50:56;;;;;;;;;5.00;4.75;;;;;6.17;93.45;100558.53;4826451;29;45617;-82
2021/12/07 06:53:22;;;;;;;;;8.75;6.50;;;;;6.26;93.24;100577.06;4807947;29;46711;-85
2021/12/07 06:55:48;;;;;;;;;6.00;4.50;;;;;6.10;93.44;100544.19;4809893;29;46862;-85
2021/12/07 06:58:13;;;;;;;;;8.75;8.00;;;;;6.07;93.20;100528.72;4827594;29;45357;-85
2021/12/07 07:00:39;;;;;;;;;11.00;8.75;;;;;5.88;93.33;100495.91;4801988;29;46000;-83
2021/12/07 07:03:05;;;;;;;;;8.75;8.00;;;;;5.98;93.52;100505.84;4814125;29;46770;-85
2021/12/07 07:08:53;;;;;;;;;6.50;6.00;;;;;5.76;93.53;100475.75;4813189;29;45826;-84
2021/12/07 07:11:20;;;;;;;;;13.00;9.25;;;;;6.17;93.56;100537.72;4796624;29;45861;-84
2021/12/07 07:13:47;;;;;;;;;7.00;6.50;;;;;5.94;93.85;100496.53;4795415;29;47453;-86
2021/12/07 07:16:13;;;;;;;;;12.00;8.00;;;;;5.76;93.39;100467.13;4808379;29;46161;-85
2021/12/07 07:18:39;;;;;;;;;8.75;8.00;;;;;5.78;93.44;100480.84;4789985;29;45548;-85
2021/12/07 07:21:06;;;;;;;;;12.00;10.00;;;;;6.10;93.44;100521.59;4807557;29;45500;-85
2021/12/07 07:23:32;;;;;;;;;11.00;8.00;;;;;5.96;93.63;100499.88;4790303;29;46619;-85
2021/12/07 07:25:58;;;;;;;;;12.75;10.75;;;;;6.00;93.55;100498.78;4792672;29;48158;-82
2021/12/07 07:28:28;;;;;;;;;16.75;12.00;;;;;5.96;93.73;100494.66;4793443;29;45785;-85
2021/12/07 07:30:55;;;;;;;;;15.50;12.75;;;;;6.11;93.62;100501.63;4809136;29;45623;-83
2021/12/07 07:33:21;;;;;;;;;19.75;14.75;;;;;5.90;93.35;100470.69;4809803;29;45869;-84
2021/12/07 07:35:47;;;;;;;;;17.25;12.25;;;;;5.97;93.25;100476.38;4791938;29;47126;-84
2021/12/07 07:38:13;;;;;;;;;11.00;9.75;;;;;5.79;93.53;100435.75;4809522;29;45762;-86
2021/12/07 07:40:40;;;;;;;;;18.75;13.00;;;;;5.78;93.35;100414.13;4807947;29;45697;-85
2021/12/07 07:43:05;;;;;;;;;16.75;12.50;;;;;6.16;93.43;100479.66;4808840;29;46026;-83
2021/12/07 07:45:31;;;;;;;;;11.75;11.00;;;;;5.82;93.55;100417.41;4792423;29;45848;-85
2021/12/07 07:47:57;;;;;;;;;12.00;11.00;;;;;5.81;93.47;100424.34;4809293;29;45597;-83
2021/12/07 07:53:45;;;;;;;;;17.00;15.25;;;;;6.17;93.62;100475.28;4808253;29;45781;-84
2021/12/07 07:56:11;;;;;;;;;13.50;12.50;;;;;5.85;93.50;100414.63;4791470;29;47344;-85
2021/12/07 07:58:37;;;;;;;;;13.00;12.50;;;;;5.95;93.48;100428.81;4809260;29;45584;-84
2021/12/07 08:01:03;;;;;;;;;15.25;13.00;;;;;5.99;93.30;100437.31;4792106;29;45514;-84
2021/12/07 08:03:28;;;;;;;;;19.75;12.00;;;;;6.18;93.40;100458.78;4791148;29;46574;-78
2021/12/07 08:05:53;;;;;;;;;16.75;12.75;;;;;5.97;93.46;100415.75;4805689;29;45704;-77
2021/12/07 08:08:19;;;;;;;;;15.00;13.25;;;;;6.21;93.45;100446.41;4806237;29;45596;-75
2021/12/07 08:10:45;;;;;;;;;20.25;13.75;;;;;5.98;93.26;100401.84;4806022;29;45811;-77
2021/12/07 08:13:11;;;;;;;;;17.75;15.00;;;;;6.25;93.37;100436.69;4805676;29;45594;-76
2021/12/07 08:15:41;;;;;;;;;15.75;13.25;;;;;6.27;93.59;100435.69;4805137;29;47104;-77
2021/12/07 08:18:07;;;;;;;;;17.25;15.00;;;;;6.24;93.19;100425.47;4806073;29;45909;-76
2021/12/07 08:23:54;;;;;;;;;13.00;12.00;;;;;6.35;93.27;100437.03;4805776;29;45639;-77
2021/12/07 08:26:23;;;;;;;;;17.00;12.25;;;;;6.37;93.46;100419.56;4805320;29;46289;-77
2021/12/07 08:28:52;;;;;;;;;13.25;10.00;;;;;6.38;93.35;100416.03;4806188;29;45628;-77
2021/12/07 08:31:19;;;;;;;;;16.00;13.50;;;;;6.38;93.23;100416.03;4806058;29;45742;-76
2021/12/07 08:33:44;;;;;;;;;13.25;10.00;;;;;6.39;93.24;100415.09;4805992;29;46354;-76
2021/12/07 08:36:11;;;;;;;;;16.75;15.25;;;;;6.42;93.40;100412.34;4805135;29;46035;-76
2021/12/07 08:38:36;;;;;;;;;10.50;10.50;;;;;6.40;93.33;100396.81;4805612;29;45549;-76
2021/12/07 08:41:03;;;;;;;;;162.00;128.50;;;;;6.46;93.12;100408.63;4805778;29;45736;-76
2021/12/07 08:43:30;;;;;;;;;19.75;14.75;;;;;6.50;93.15;100408.38;4805641;29;46786;-75
2021/12/07 08:45:59;;;;;;;;;15.75;13.25;;;;;6.52;93.32;100409.13;4804561;29;46853;-76
2021/12/07 08:48:26;;;;;;;;;25.75;22.25;;;;;6.53;93.42;100396.94;4805224;29;45698;-76
2021/12/07 08:59:48;;;;;;;;;12.25;11.00;;;;;6.52;93.00;100369.25;4767710;29;45921;-77
2021/12/07 09:02:20;;;;;;;;;11.00;10.00;;;;;6.53;93.46;100365.72;4767500;29;45711;-76
2021/12/07 09:04:46;;;;;;;;;12.75;9.25;;;;;6.57;93.29;100367.22;4766894;29;47413;-76
2021/12/07 09:07:12;;;;;;;;;10.50;9.25;;;;;6.57;93.31;100342.03;4766754;29;46297;-78
2021/12/07 09:09:42;;;;;;;;;9.25;8.25;;;;;6.58;93.13;100324.66;4782017;29;45842;-78
2021/12/07 09:12:12;;;;;;;;;10.00;9.75;;;;;6.59;93.29;100327.13;4764553;29;45880;-75
2021/12/07 09:14:38;;;;;;;;;14.00;10.00;;;;;6.50;93.28;100304.28;4766782;29;45965;-75
2021/12/07 09:17:05;;;;;;;;;16.25;12.25;;;;;6.57;93.42;100316.00;4765217;29;46533;-77
2021/12/07 09:19:36;;;;;;;;;14.75;12.00;;;;;6.49;93.09;100305.19;4766154;29;45674;-78
2021/12/07 09:22:02;;;;;;;;;10.50;9.00;;;;;6.51;93.14;100307.72;4766680;29;45932;-77
2021/12/07 09:24:28;;;;;;;;;10.00;9.00;;;;;6.51;93.23;100294.72;4766462;29;45653;-76
2021/12/07 09:26:54;;;;;;;;;10.50;9.25;;;;;6.53;93.05;100285.88;4780473;29;47506;-77
2021/12/07 09:29:20;;;;;;;;;12.75;8.75;;;;;6.52;93.29;100291.19;4766756;29;45947;-75
2021/12/07 09:31:46;;;;;;;;;13.00;9.50;;;;;6.52;93.14;100281.59;4766351;29;45683;-75
2021/12/07 09:34:12;;;;;;;;;10.75;9.00;;;;;6.50;93.19;100280.84;4794766;29;47564;-76
2021/12/07 09:36:42;;;;;;;;;12.25;8.25;;;;;6.52;93.02;100293.78;4804650;29;46278;-75
2021/12/07 09:39:17;;;;;;;;;12.50;11.50;;;;;6.46;93.26;100288.94;4804872;29;45580;-77
2021/12/07 09:41:43;;;;;;;;;10.50;10.25;;;;;6.48;92.86;100289.69;4804840;29;45778;-76
2021/12/07 09:44:09;;;;;;;;;18.00;13.75;;;;;6.53;93.18;100298.88;4804631;29;47494;-77
2021/12/07 09:46:36;;;;;;;;;12.75;9.25;;;;;6.45;93.16;100285.50;4804376;29;46408;-76
2021/12/07 09:49:05;;;;;;;;;9.75;8.75;;;;;6.54;93.10;100303.16;4804206;29;45701;-76
2021/12/07 09:54:53;;;;;;;;;10.00;8.50;;;;;6.56;92.94;100277.06;4803001;29;45998;-77
2021/12/07 09:57:20;;;;;;;;;10.50;9.00;;;;;6.56;92.98;100280.50;4804240;29;46387;-76
2021/12/07 09:59:45;;;;;;;;;13.00;12.25;;;;;6.49;93.27;100273.97;4804900;29;45938;-77
2021/12/07 10:02:11;;;;;;;;;12.25;12.00;;;;;6.52;93.08;100276.41;4804684;29;45792;-74
2021/12/07 10:04:36;;;;;;;;;15.00;11.50;;;;;6.47;93.09;100272.41;4804462;29;46716;-77
2021/12/07 10:07:03;;;;;;;;;12.50;12.00;;;;;6.58;93.27;100291.66;4804184;29;45654;-77
2021/12/07 10:09:29;;;;;;;;;15.75;14.75;;;;;6.59;92.96;100288.09;4804693;29;45617;-77
2021/12/07 10:11:55;;;;;;;;;14.25;11.00;;;;;6.62;93.16;100281.91;4804584;29;45823;-77
2021/12/07 10:14:20;;;;;;;;;15.50;12.50;;;;;6.63;93.26;100261.00;4803542;29;47424;-75
2021/12/07 10:16:48;;;;;;;;;12.50;11.75;;;;;6.64;93.18;100241.81;4787723;29;47318;-76
2021/12/07 10:26:06;;;;;;;;;16.75;13.50;;;;;6.69;93.25;100212.94;4804667;29;45616;-76
2021/12/07 10:28:44;;;;;;;;;11.75;10.00;;;;;6.72;93.67;100210.97;4805101;29;46233;-76
2021/12/07 10:31:17;;;;;;;;;16.25;12.25;;;;;6.69;93.16;100200.72;4804246;29;45594;-75
2021/12/07 10:34:14;;;;;;;;;11.50;9.50;;;;;6.70;93.16;100189.38;4803267;29;46029;-76
2021/12/07 10:36:52;;;;;;;;;12.75;12.00;;;;;6.71;93.12;100177.22;4802465;29;47285;-76
2021/12/07 10:39:21;;;;;;;;;12.00;8.50;;;;;6.77;92.91;100165.56;4803306;29;46166;-74
2021/12/07 10:41:55;;;;;;;;;12.25;10.00;;;;;6.78;93.12;100152.47;4803156;29;45975;-75
2021/12/07 10:44:24;;;;;;;;;13.50;12.50;;;;;6.76;93.18;100149.13;4803699;29;45657;-75
2021/12/07 10:46:52;;;;;;;;;14.50;10.75;;;;;6.82;93.10;100142.69;4802913;29;47934;-75
2021/12/07 10:49:30;;;;;;;;;10.25;9.75;;;;;6.88;92.92;100139.72;4803570;29;46442;-74
2021/12/07 10:52:14;;;;;;;;;10.00;9.00;;;;;6.91;93.19;100124.72;4803557;29;45718;-76
2021/12/07 10:54:54;;;;;;;;;12.75;9.50;;;;;6.93;93.11;100112.44;4803728;29;45860;-77
2021/12/07 10:57:29;;;;;;;;;13.25;11.00;;;;;6.98;93.06;100101.72;4787001;29;46658;-77
2021/12/07 10:59:59;;;;;;;;;14.75;11.75;;;;;7.01;93.07;100091.13;4803598;29;45973;-78
2021/12/07 11:02:30;;;;;;;;;14.50;14.50;;;;;7.05;93.06;100084.78;4803397;29;45952;-76
2021/12/07 11:08:21;;;;;;;;;13.25;12.00;;;;;7.09;92.99;100063.66;4803159;29;45956;-77
2021/12/07 11:10:49;;;;;;;;;20.25;14.75;;;;;7.18;93.12;100054.38;4802468;29;46477;-77
2021/12/07 11:13:19;;;;;;;;;12.00;9.50;;;;;7.21;93.13;100042.94;4803305;29;45747;-76
2021/12/07 11:15:50;;;;;;;;;12.50;12.50;;;;;7.24;93.20;100033.13;4803616;29;45712;-76
2021/12/07 11:18:24;;;;;;;;;15.25;13.00;;;;;7.32;93.08;100024.81;4803411;29;46622;-77
2021/12/07 11:24:12;;;;;;;;;14.00;11.00;;;;;7.39;93.22;99998.25;4803046;29;45928;-77
2021/12/07 11:29:40;;;;;;;;;9.75;9.00;;;;;7.47;93.10;99963.84;4747169;29;46210;-78
2021/12/07 11:32:09;;;;;;;;;17.00;10.75;;;;;7.53;93.10;99969.47;4760959;29;46293;-75
2021/12/07 11:34:40;;;;;;;;;9.25;8.50;;;;;7.54;92.97;99944.25;4746839;29;45806;-77
2021/12/07 11:40:34;;;;;;;;;9.00;8.50;;;;;7.62;93.05;99928.91;4746280;29;45985;-77
2021/12/07 11:43:00;;;;;;;;;7.25;5.25;;;;;7.68;93.14;99917.22;4746627;29;46315;-76
2021/12/07 11:45:31;;;;;;;;;12.25;9.50;;;;;7.72;93.07;99918.69;4745848;29;45954;-75
2021/12/07 11:48:07;;;;;;;;;6.00;3.50;;;;;7.76;93.04;99905.31;4746836;29;46182;-76
2021/12/07 11:50:51;;;;;;;;;6.00;5.50;;;;;7.79;93.18;99902.47;4746463;29;46320;-75
2021/12/07 11:53:21;;;;;;;;;9.25;6.75;;;;;7.77;92.75;99888.75;4745981;29;46208;-74
2021/12/07 11:55:50;;;;;;;;;9.25;6.75;;;;;7.85;93.10;99888.16;4731145;29;45696;-75
2021/12/07 11:58:16;;;;;;;;;7.00;5.25;;;;;7.86;92.90;99879.41;4747884;29;45843;-77
2021/12/07 12:00:50;;;;;;;;;6.25;5.75;;;;;7.89;92.85;99856.53;4747879;29;45699;-76
2021/12/07 12:03:19;;;;;;;;;7.00;6.00;;;;;7.92;92.92;99858.13;4747570;29;46676;-76
2021/12/07 12:09:50;;;;;;;;;8.50;6.75;;;;;7.98;93.06;99835.03;4803523;29;45808;-75
2021/12/07 12:12:33;;;;;;;;;6.00;5.00;;;;;8.02;93.00;99833.03;4803508;29;45701;-75
2021/12/07 12:15:27;;;;;;;;;8.75;6.00;;;;;8.07;92.89;99822.25;4786738;29;46888;-75
2021/12/07 12:24:47;;;;;;;;;5.00;5.00;;;;;8.12;93.14;99796.66;4731776;30;45583;-77
2021/12/07 12:27:19;;;;;;;;;5.00;3.00;;;;;7.94;92.76;99762.31;4731276;30;46532;-75
2021/12/07 12:29:51;;;;;;;;;6.00;5.75;;;;;8.05;92.84;99757.16;4731684;30;45732;-74
2021/12/07 12:32:38;;;;;;;;;6.50;5.75;;;;;7.58;92.93;99670.25;4731849;30;45904;-76
2021/12/07 12:35:12;;;;;;;;;6.50;5.00;;;;;8.22;92.93;99737.63;4731409;30;46828;-76
2021/12/07 12:41:28;;;;;;;;;6.00;5.00;;;;;8.29;92.77;99717.97;4731119;30;45922;-77
2021/12/07 12:44:37;;;;;;;;;3.00;3.00;;;;;8.33;92.87;99685.50;4731614;30;46090;-75
2021/12/07 12:47:33;;;;;;;;;2.25;2.00;;;;;7.75;92.89;99588.19;4678241;30;47927;-75
2021/12/07 12:50:24;;;;;;;;;3.00;3.00;;;;;7.78;92.83;99571.47;4663087;30;47006;-78
2021/12/07 12:53:22;;;;;;;;;5.00;4.50;;;;;8.45;92.81;99655.00;4661005;30;45662;-76
2021/12/07 12:56:37;;;;;;;;;5.75;3.00;;;;;8.23;92.60;99601.00;4646699;30;45764;-77
2021/12/07 13:02:42;;;;;;;;;3.00;2.00;;;;;7.89;92.43;99535.81;4661413;30;46828;-77
2021/12/07 13:08:38;;;;;;;;;2.25;2.25;;;;;8.54;92.49;99629.03;4661082;30;45970;-77
2021/12/07 13:12:02;;;;;;;;;8.00;3.00;;;;;8.57;92.32;99646.25;4646658;30;45808;-78
2021/12/07 13:15:04;;;;;;;;;2.00;2.00;;;;;8.06;92.27;99529.28;4626660;30;46595;-77
2021/12/07 13:24:56;;;;;;;;;2.50;2.50;;;;;8.61;92.44;99595.44;4548711;31;46272;-75
2021/12/07 13:27:22;;;;;;;;;4.75;3.00;;;;;8.04;92.16;99499.06;4543060;31;46366;-77
2021/12/07 13:29:53;;;;;;;;;5.00;3.00;;;;;8.42;92.36;99570.78;4543318;31;45802;-76
2021/12/07 13:32:21;;;;;;;;;6.25;4.50;;;;;8.64;92.16;99585.56;4541685;31;45857;-77
2021/12/07 13:35:28;;;;;;;;;3.00;2.00;;;;;8.08;92.07;99506.53;4526972;31;47937;-76
2021/12/07 13:41:17;;;;;;;;;4.00;2.75;;;;;8.67;92.03;99597.56;4542843;31;45885;-77
2021/12/07 13:43:47;;;;;;;;;5.00;3.00;;;;;7.97;91.94;99488.28;4542991;31;45669;-76
2021/12/07 13:46:17;;;;;;;;;4.00;3.00;;;;;8.70;92.02;99589.47;4543848;31;48003;-75
2021/12/07 13:48:47;;;;;;;;;8.00;5.00;;;;;8.43;91.89;99512.41;4544435;31;45591;-77
2021/12/07 13:55:11;;;;;;;;;5.50;3.00;;;;;8.75;91.85;99522.88;4592853;30;45711;-76
2021/12/07 14:00:31;;;;;;;;;2.50;2.50;;;;;8.46;91.82;99492.25;4615117;30;45990;-76
2021/12/07 14:03:06;;;;;;;;;8.00;5.00;;;;;8.80;91.81;99553.84;4664890;30;46185;-75
2021/12/07 14:05:37;;;;;;;;;3.00;2.00;;;;;8.86;91.83;99542.91;4713946;30;45734;-75
2021/12/07 14:08:36;;;;;;;;;5.50;3.50;;;;;8.87;91.73;99536.72;4713618;30;46456;-75
2021/12/07 14:11:02;;;;;;;;;2.25;1.50;;;;;8.83;91.59;99524.88;4713521;30;47421;-74
2021/12/07 14:13:28;;;;;;;;;6.00;3.00;;;;;8.91;91.75;99530.28;4713123;30;45644;-76
2021/12/07 14:15:53;;;;;;;;;3.50;3.00;;;;;8.96;91.59;99527.34;4713310;30;45829;-75
2021/12/07 14:18:23;;;;;;;;;5.00;3.00;;;;;8.98;91.44;99528.00;4713366;30;45571;-76
2021/12/07 14:20:56;;;;;;;;;2.75;2.25;;;;;8.99;91.74;99519.22;4712968;30;46523;-75
2021/12/07 14:23:30;;;;;;;;;4.50;3.00;;;;;9.01;91.54;99514.72;4713191;30;45830;-75
2021/12/07 14:25:58;;;;;;;;;7.75;5.25;;;;;8.99;91.76;99496.56;4713563;30;45894;-76
2021/12/07 14:28:28;;;;;;;;;5.00;3.00;;;;;9.03;91.46;99484.06;4714133;30;46594;-76
2021/12/07 14:31:06;;;;;;;;;1.75;1.50;;;;;9.02;91.28;99472.78;4713633;30;45674;-76
2021/12/07 14:33:37;;;;;;;;;6.00;3.00;;;;;9.05;91.60;99472.53;4713482;30;45893;-77
2021/12/07 14:36:03;;;;;;;;;3.00;1.75;;;;;9.07;91.38;99454.94;4713222;30;45710;-75
2021/12/07 14:38:31;;;;;;;;;6.00;4.00;;;;;9.02;91.47;99437.97;4712876;30;47539;-75
2021/12/07 14:41:06;;;;;;;;;5.50;4.00;;;;;9.04;91.57;99418.63;4713024;30;47371;-75
2021/12/07 14:43:31;;;;;;;;;5.00;3.50;;;;;9.12;91.28;99426.63;4712604;30;45975;-75
2021/12/07 14:46:02;;;;;;;;;3.00;3.00;;;;;9.13;91.33;99410.00;4713019;30;45746;-76
2021/12/07 14:48:27;;;;;;;;;6.00;5.00;;;;;9.15;91.20;99395.03;4712478;30;47585;-76
2021/12/07 14:50:53;;;;;;;;;5.00;3.00;;;;;9.17;91.04;99372.22;4712826;30;46320;-75
2021/12/07 14:53:44;;;;;;;;;3.50;2.00;;;;;9.19;91.37;99377.31;4712864;30;45694;-76